| time (UTC) | temp F | wind direction | speed MPH | gust MPH | rain 1hr in | rain 24hr in | rain mn in | humidity % | barometer mb |
| 20260903141010 | 70 | 151 | 1.0 | 3.0 | 0.00 | 0.12 | 0.12 | 90 | 1011.9 |
| 20260903140512 | 71 | 113 | 0.0 | 3.0 | 0.00 | 0.12 | 0.12 | 90 | 1011.8 |
| 20260903140015 | 71 | 144 | 0.0 | 3.0 | 0.00 | 0.12 | 0.12 | 90 | 1011.8 |
| 20260903135512 | 71 | 173 | 0.0 | 3.0 | 0.00 | 0.12 | 0.12 | 90 | 1012.1 |
| 20260903135015 | 70 | 117 | 0.0 | 3.0 | 0.00 | 0.12 | 0.12 | 91 | 1011.8 |
| 20260903134507 | 70 | 87 | 0.0 | 3.0 | 0.00 | 0.12 | 0.12 | 91 | 1011.6 |
| 20260903134010 | 70 | 25 | 0.0 | 2.0 | 0.00 | 0.12 | 0.12 | 91 | 1011.8 |
| 20260903133513 | 70 | 107 | 0.0 | 4.0 | 0.00 | 0.12 | 0.12 | 91 | 1012.0 |
| 20260903133027 | 70 | 162 | 0.0 | 4.0 | 0.00 | 0.12 | 0.12 | 91 | 1012.2 |
| 20260903132507 | 70 | 108 | 0.0 | 3.0 | 0.00 | 0.12 | 0.12 | 91 | 1012.6 |
| 20260903132007 | 70 | 111 | 1.0 | 3.0 | 0.00 | 0.12 | 0.12 | 91 | 1012.9 |
| 20260903131519 | 70 | 140 | 0.0 | 2.0 | 0.00 | 0.12 | 0.12 | 91 | 1012.9 |
| 20260903131007 | 70 | 81 | 0.0 | 2.0 | 0.00 | 0.12 | 0.12 | 91 | 1013.0 |
| 20260903130509 | 70 | 81 | 0.0 | 6.0 | 0.00 | 0.12 | 0.12 | 90 | 1012.8 |
| 20260903130015 | 69 | 145 | 0.0 | 6.0 | 0.00 | 0.12 | 0.12 | 90 | 1012.8 |
| 20260903125511 | 70 | 117 | 1.0 | 3.0 | 0.01 | 0.12 | 0.12 | 90 | 1012.5 |
| 20260903125006 | 70 | 132 | 1.0 | 3.0 | 0.01 | 0.12 | 0.12 | 90 | 1012.6 |
| 20260903124539 | 70 | 131 | 0.0 | 2.0 | 0.02 | 0.12 | 0.12 | 90 | 1013.1 |
| 20260903124011 | 69 | 101 | 0.0 | 2.0 | 0.02 | 0.12 | 0.12 | 90 | 1013.1 |
| 20260903123515 | 69 | 208 | 0.0 | 3.0 | 0.02 | 0.12 | 0.12 | 90 | 1013.1 |
| 20260903123013 | 69 | 207 | 0.0 | 4.0 | 0.03 | 0.12 | 0.12 | 89 | 1013.2 |
| 20260903122512 | 69 | 197 | 1.0 | 4.0 | 0.04 | 0.12 | 0.12 | 89 | 1013.2 |
| 20260903122016 | 70 | 200 | 0.0 | 4.0 | 0.04 | 0.12 | 0.12 | 89 | 1013.5 |
| 20260903121527 | 70 | 238 | 0.0 | 4.0 | 0.05 | 0.12 | 0.12 | 89 | 1013.5 |
| 20260903121012 | 70 | 191 | 0.0 | 2.0 | 0.05 | 0.12 | 0.12 | 89 | 1013.6 |
| 20260903120514 | 70 | 215 | 0.0 | 3.0 | 0.06 | 0.12 | 0.12 | 89 | 1013.4 |
| 20260903120017 | 70 | 271 | 0.0 | 3.0 | 0.06 | 0.12 | 0.12 | 89 | 1013.2 |
| 20260903115508 | 70 | 194 | 0.0 | 3.0 | 0.05 | 0.11 | 0.11 | 89 | 1013.1 |
| 20260903115010 | 70 | 250 | 1.0 | 4.0 | 0.06 | 0.12 | 0.11 | 89 | 1013.0 |
| 20260903114523 | 70 | 104 | 0.0 | 5.0 | 0.05 | 0.11 | 0.10 | 89 | 1012.5 |
| 20260903114014 | 70 | 94 | 1.0 | 6.0 | 0.06 | 0.11 | 0.10 | 89 | 1012.3 |
| 20260903113511 | 70 | 101 | 1.0 | 6.0 | 0.07 | 0.11 | 0.10 | 89 | 1012.4 |
| 20260903113030 | 70 | 138 | 2.0 | 4.0 | 0.07 | 0.10 | 0.09 | 89 | 1012.6 |
| 20260903112513 | 70 | 118 | 1.0 | 4.0 | 0.08 | 0.09 | 0.08 | 89 | 1012.8 |
| 20260903112011 | 71 | 130 | 0.0 | 2.0 | 0.08 | 0.09 | 0.08 | 88 | 1013.1 |
| 20260903111524 | 71 | 130 | 0.0 | 2.0 | 0.07 | 0.08 | 0.07 | 88 | 1013.1 |
| 20260903111005 | 71 | 102 | 0.0 | 3.0 | 0.07 | 0.08 | 0.07 | 88 | 1013.0 |
| 20260903110506 | 71 | 229 | 0.0 | 4.0 | 0.06 | 0.07 | 0.06 | 88 | 1013.0 |
| 20260903110009 | 71 | 237 | 0.0 | 4.0 | 0.06 | 0.07 | 0.06 | 87 | 1012.8 |
| 20260903105504 | 71 | 137 | 0.0 | 9.0 | 0.06 | 0.07 | 0.06 | 87 | 1012.7 |
| 20260903105004 | 72 | 126 | 1.0 | 9.0 | 0.05 | 0.06 | 0.05 | 87 | 1012.9 |
| 20260903104510 | 72 | 182 | 0.0 | 6.0 | 0.05 | 0.06 | 0.05 | 86 | 1013.0 |
| 20260903104004 | 72 | 174 | 2.0 | 7.0 | 0.04 | 0.05 | 0.04 | 86 | 1013.0 |
| 20260903103508 | 72 | 182 | 3.0 | 7.0 | 0.03 | 0.04 | 0.03 | 86 | 1012.8 |
| 20260903103002 | 72 | 83 | 1.0 | 7.0 | 0.02 | 0.03 | 0.02 | 86 | 1012.6 |
| 20260903102502 | 73 | 119 | 2.0 | 10.0 | 0.00 | 0.01 | 0.00 | 85 | 1012.9 |
| 20260903102001 | 73 | 239 | 3.0 | 11.0 | 0.00 | 0.01 | 0.00 | 85 | 1013.0 |
| 20260903101503 | 73 | 204 | 4.0 | 12.0 | 0.00 | 0.01 | 0.00 | 86 | 1013.2 |
| 20260903101003 | 73 | 229 | 2.0 | 12.0 | 0.00 | 0.02 | 0.00 | 87 | 1013.4 |
| 20260903100503 | 72 | 256 | 3.0 | 11.0 | 0.00 | 0.04 | 0.00 | 88 | 1013.4 |
| 20260903100019 | 72 | 205 | 4.0 | 11.0 | 0.00 | 0.04 | 0.00 | 88 | 1013.3 |
| 20260903095509 | 72 | 209 | 4.0 | 9.0 | 0.00 | 0.04 | 0.00 | 89 | 1013.1 |
| 20260903095010 | 72 | 253 | 4.0 | 9.0 | 0.00 | 0.04 | 0.00 | 90 | 1012.3 |
| 20260903094505 | 72 | 231 | 2.0 | 5.0 | 0.00 | 0.04 | 0.00 | 90 | 1012.2 |
| 20260903094006 | 72 | 227 | 0.0 | 3.0 | 0.00 | 0.04 | 0.00 | 90 | 1011.9 |
| 20260903093506 | 71 | 221 | 0.0 | 0.0 | 0.00 | 0.04 | 0.00 | 89 | 1011.8 |
| 20260903093010 | 71 | 131 | 0.0 | 1.0 | 0.00 | 0.04 | 0.00 | 89 | 1011.7 |
| 20260903092503 | 71 | 131 | 0.0 | 2.0 | 0.00 | 0.04 | 0.00 | 89 | 1011.6 |
| 20260903092007 | 71 | 131 | 0.0 | 2.0 | 0.00 | 0.04 | 0.00 | 89 | 1011.7 |
| 20260903091515 | 71 | 131 | 0.0 | 2.0 | 0.00 | 0.04 | 0.00 | 89 | 1011.6 |
| 20260903091003 | 71 | 136 | 0.0 | 2.0 | 0.00 | 0.04 | 0.00 | 89 | 1011.5 |
| 20260903090503 | 71 | 132 | 0.0 | 0.0 | 0.00 | 0.04 | 0.00 | 89 | 1011.3 |
| 20260903090011 | 71 | 132 | 0.0 | 0.0 | 0.00 | 0.04 | 0.00 | 88 | 1011.3 |
| 20260903085502 | 71 | 132 | 0.0 | 0.0 | 0.00 | 0.04 | 0.00 | 89 | 1011.4 |
| 20260903085004 | 71 | 132 | 0.0 | 0.0 | 0.00 | 0.04 | 0.00 | 89 | 1011.3 |
| 20260903084513 | 71 | 132 | 0.0 | 0.0 | 0.00 | 0.04 | 0.00 | 88 | 1011.5 |
| 20260903084012 | 71 | 132 | 0.0 | 0.0 | 0.00 | 0.04 | 0.00 | 88 | 1011.6 |
| 20260903083502 | 71 | 107 | 0.0 | 0.0 | 0.00 | 0.04 | 0.00 | 88 | 1011.4 |
| 20260903083012 | 71 | 107 | 0.0 | 0.0 | 0.00 | 0.04 | 0.00 | 88 | 1011.2 |
| 20260903082509 | 72 | 107 | 0.0 | 1.0 | 0.00 | 0.04 | 0.00 | 88 | 1011.3 |
| 20260903082009 | 72 | 107 | 0.0 | 3.0 | 0.00 | 0.04 | 0.00 | 88 | 1011.4 |
| 20260903081504 | 72 | 107 | 0.0 | 3.0 | 0.00 | 0.04 | 0.00 | 88 | 1011.4 |
| 20260903081005 | 72 | 163 | 1.0 | 3.0 | 0.00 | 0.04 | 0.00 | 88 | 1011.4 |
| 20260903080508 | 72 | 118 | 0.0 | 2.0 | 0.00 | 0.04 | 0.00 | 88 | 1011.2 |
| 20260903080012 | 72 | 118 | 0.0 | 2.0 | 0.00 | 0.04 | 0.00 | 88 | 1011.2 |
| 20260903075504 | 72 | 118 | 0.0 | 2.0 | 0.00 | 0.04 | 0.00 | 88 | 1011.2 |
| 20260903075002 | 72 | 121 | 0.0 | 2.0 | 0.00 | 0.04 | 0.00 | 88 | 1011.1 |
| 20260903074508 | 72 | 121 | 0.0 | 2.0 | 0.00 | 0.04 | 0.00 | 88 | 1011.2 |
| 20260903074005 | 72 | 121 | 0.0 | 1.0 | 0.00 | 0.04 | 0.00 | 87 | 1011.1 |
| 20260903073505 | 72 | 121 | 0.0 | 1.0 | 0.00 | 0.04 | 0.00 | 87 | 1011.1 |
| 20260903073015 | 72 | 121 | 0.0 | 1.0 | 0.00 | 0.04 | 0.00 | 87 | 1011.2 |
| 20260903072508 | 72 | 121 | 0.0 | 3.0 | 0.00 | 0.04 | 0.00 | 87 | 1011.2 |
| 20260903072007 | 72 | 121 | 1.0 | 3.0 | 0.00 | 0.04 | 0.00 | 87 | 1011.3 |
| 20260903071520 | 72 | 120 | 1.0 | 3.0 | 0.00 | 0.04 | 0.00 | 88 | 1011.3 |
| 20260903071011 | 72 | 107 | 0.0 | 3.0 | 0.00 | 0.04 | 0.00 | 88 | 1011.3 |
| 20260903070507 | 72 | 113 | 0.0 | 3.0 | 0.00 | 0.04 | 0.00 | 88 | 1011.3 |
| 20260903070014 | 72 | 103 | 0.0 | 3.0 | 0.00 | 0.04 | 0.00 | 88 | 1011.4 |
| 20260903065511 | 72 | 98 | 0.0 | 3.0 | 0.00 | 0.06 | 0.00 | 88 | 1011.5 |
| 20260903065012 | 72 | 131 | 0.0 | 3.0 | 0.00 | 0.07 | 0.00 | 88 | 1011.5 |
| 20260903064510 | 72 | 131 | 1.0 | 3.0 | 0.00 | 0.09 | 0.00 | 88 | 1011.6 |
| 20260903064011 | 72 | 90 | 0.0 | 2.0 | 0.00 | 0.23 | 0.00 | 87 | 1011.5 |
| 20260903063504 | 72 | 90 | 0.0 | 1.0 | 0.00 | 0.52 | 0.00 | 87 | 1011.5 |
| 20260903063011 | 72 | 90 | 0.0 | 0.0 | 0.00 | 0.65 | 0.00 | 87 | 1011.5 |
| 20260903062507 | 72 | 90 | 0.0 | 0.0 | 0.00 | 0.65 | 0.00 | 87 | 1011.6 |
| 20260903062006 | 73 | 90 | 0.0 | 1.0 | 0.00 | 0.65 | 0.00 | 86 | 1011.6 |
| 20260903061519 | 73 | 90 | 0.0 | 1.0 | 0.00 | 0.65 | 0.00 | 86 | 1011.6 |
| 20260903061005 | 73 | 90 | 0.0 | 2.0 | 0.00 | 0.65 | 0.00 | 86 | 1011.7 |
| 20260903060510 | 73 | 90 | 0.0 | 2.0 | 0.00 | 0.65 | 0.00 | 87 | 1011.7 |
| 20260903060020 | 73 | 121 | 0.0 | 2.0 | 0.00 | 0.65 | 0.00 | 86 | 1011.7 |
| 20260903055514 | 73 | 121 | 0.0 | 1.0 | 0.00 | 0.65 | 0.00 | 86 | 1011.8 |
| 20260903055009 | 73 | 121 | 0.0 | 1.0 | 0.00 | 0.65 | 0.00 | 86 | 1011.8 |
| 20260903054524 | 73 | 121 | 0.0 | 2.0 | 0.00 | 0.65 | 0.00 | 86 | 1011.8 |
| 20260903054015 | 73 | 121 | 0.0 | 3.0 | 0.00 | 0.65 | 0.00 | 86 | 1011.9 |
| 20260903053508 | 73 | 121 | 1.0 | 3.0 | 0.00 | 0.65 | 0.00 | 86 | 1011.8 |
| 20260903053017 | 73 | 144 | 1.0 | 2.0 | 0.00 | 0.65 | 0.00 | 86 | 1011.9 |
| 20260903052511 | 73 | 131 | 1.0 | 2.0 | 0.00 | 0.65 | 0.00 | 86 | 1011.9 |
| 20260903052007 | 73 | 132 | 0.0 | 0.0 | 0.00 | 0.65 | 0.00 | 86 | 1011.9 |
| 20260903051513 | 73 | 132 | 0.0 | 2.0 | 0.00 | 0.65 | 0.00 | 86 | 1012.0 |
| 20260903051012 | 73 | 132 | 0.0 | 2.0 | 0.00 | 0.65 | 0.00 | 86 | 1011.9 |
| 20260903050510 | 73 | 132 | 0.0 | 2.0 | 0.00 | 0.65 | 0.00 | 86 | 1011.9 |
| 20260903050018 | 74 | 132 | 0.0 | 2.0 | 0.00 | 0.65 | 0.00 | 86 | 1012.0 |
| 20260903045512 | 74 | 132 | 0.0 | 2.0 | 0.00 | 0.65 | 0.65 | 86 | 1011.9 |
| 20260903045012 | 74 | 132 | 0.0 | 2.0 | 0.00 | 0.65 | 0.65 | 86 | 1011.9 |
| 20260903044524 | 74 | 150 | 0.0 | 2.0 | 0.00 | 0.65 | 0.65 | 87 | 1011.9 |
| 20260903044010 | 74 | 157 | 0.0 | 3.0 | 0.00 | 0.67 | 0.65 | 87 | 1011.9 |
| 20260903043513 | 73 | 159 | 0.0 | 3.0 | 0.00 | 0.67 | 0.65 | 87 | 1011.9 |
| 20260903043025 | 73 | 126 | 0.0 | 2.0 | 0.00 | 0.67 | 0.65 | 87 | 1011.9 |
| 20260903042514 | 73 | 211 | 0.0 | 2.0 | 0.00 | 0.67 | 0.65 | 87 | 1011.9 |
| 20260903042010 | 73 | 211 | 0.0 | 2.0 | 0.00 | 0.67 | 0.65 | 86 | 1012.0 |
| 20260903041525 | 73 | 211 | 0.0 | 2.0 | 0.00 | 0.67 | 0.65 | 86 | 1012.0 |
| 20260903041015 | 73 | 211 | 0.0 | 1.0 | 0.00 | 0.67 | 0.65 | 86 | 1012.0 |
| 20260903040506 | 73 | 211 | 0.0 | 1.0 | 0.00 | 0.67 | 0.65 | 86 | 1012.0 |
| 20260903040017 | 73 | 211 | 0.0 | 1.0 | 0.00 | 0.67 | 0.65 | 86 | 1012.0 |
| 20260903035503 | 73 | 211 | 0.0 | 1.0 | 0.00 | 0.67 | 0.65 | 86 | 1012.0 |
| 20260903035004 | 73 | 211 | 0.0 | 1.0 | 0.00 | 0.67 | 0.65 | 86 | 1012.1 |
| 20260903034510 | 73 | 211 | 0.0 | 0.0 | 0.00 | 0.67 | 0.65 | 86 | 1012.2 |
| 20260903034002 | 73 | 211 | 0.0 | 0.0 | 0.00 | 0.67 | 0.65 | 86 | 1012.3 |
| 20260903033501 | 74 | 211 | 0.0 | 0.0 | 0.00 | 0.67 | 0.65 | 85 | 1012.2 |
| 20260903033003 | 74 | 211 | 0.0 | 0.0 | 0.00 | 0.67 | 0.65 | 85 | 1012.3 |
| 20260903032503 | 74 | 211 | 0.0 | 1.0 | 0.00 | 0.67 | 0.65 | 85 | 1012.3 |
| 20260903032001 | 74 | 211 | 0.0 | 1.0 | 0.00 | 0.67 | 0.65 | 85 | 1012.3 |
| 20260903031502 | 74 | 211 | 0.0 | 1.0 | 0.00 | 0.67 | 0.65 | 85 | 1012.3 |
| 20260903031004 | 74 | 211 | 0.0 | 1.0 | 0.00 | 0.67 | 0.65 | 85 | 1012.3 |
| 20260903030503 | 74 | 211 | 0.0 | 1.0 | 0.00 | 0.67 | 0.65 | 85 | 1012.3 |
| 20260903030005 | 74 | 211 | 0.0 | 0.0 | 0.00 | 0.67 | 0.65 | 84 | 1012.4 |
| 20260903025509 | 74 | 211 | 0.0 | 0.0 | 0.00 | 0.67 | 0.65 | 84 | 1012.4 |
| 20260903025008 | 74 | 211 | 0.0 | 0.0 | 0.00 | 0.67 | 0.65 | 84 | 1012.4 |
| 20260903024503 | 75 | 211 | 0.0 | 0.0 | 0.00 | 0.67 | 0.65 | 83 | 1012.3 |
| 20260903024006 | 75 | 211 | 0.0 | 0.0 | 0.00 | 0.67 | 0.65 | 83 | 1012.4 |
| 20260903023510 | 75 | 211 | 0.0 | 0.0 | 0.00 | 0.67 | 0.65 | 82 | 1012.4 |
| 20260903023003 | 75 | 211 | 0.0 | 0.0 | 0.00 | 0.67 | 0.65 | 82 | 1012.4 |
| 20260903022506 | 75 | 211 | 0.0 | 0.0 | 0.00 | 0.67 | 0.65 | 82 | 1012.3 |
| 20260903022003 | 75 | 211 | 0.0 | 0.0 | 0.00 | 0.67 | 0.65 | 81 | 1012.2 |
| 20260903021503 | 75 | 211 | 0.0 | 0.0 | 0.00 | 0.67 | 0.65 | 80 | 1012.2 |
| 20260903021003 | 76 | 211 | 0.0 | 0.0 | 0.00 | 0.67 | 0.65 | 80 | 1012.2 |
| 20260903020502 | 76 | 211 | 0.0 | 0.0 | 0.00 | 0.67 | 0.65 | 80 | 1012.1 |
| 20260903020013 | 76 | 211 | 0.0 | 0.0 | 0.00 | 0.67 | 0.65 | 79 | 1012.0 |
| 20260903015502 | 76 | 211 | 0.0 | 0.0 | 0.00 | 0.67 | 0.65 | 78 | 1012.0 |
| 20260903015005 | 77 | 211 | 0.0 | 0.0 | 0.00 | 0.67 | 0.65 | 78 | 1012.0 |
| 20260903014511 | 77 | 211 | 0.0 | 0.0 | 0.00 | 0.67 | 0.65 | 77 | 1012.0 |
| 20260903014010 | 77 | 211 | 0.0 | 0.0 | 0.00 | 0.67 | 0.65 | 76 | 1011.9 |
| 20260903013502 | 77 | 211 | 0.0 | 0.0 | 0.00 | 0.67 | 0.65 | 76 | 1011.9 |
| 20260903013010 | 78 | 211 | 0.0 | 0.0 | 0.00 | 0.67 | 0.65 | 75 | 1012.0 |
| 20260903012511 | 78 | 211 | 0.0 | 0.0 | 0.00 | 0.67 | 0.65 | 74 | 1011.9 |
| 20260903012004 | 78 | 211 | 0.0 | 0.0 | 0.00 | 0.67 | 0.65 | 74 | 1011.9 |
| 20260903011507 | 78 | 211 | 0.0 | 0.0 | 0.00 | 0.67 | 0.65 | 73 | 1011.8 |
| 20260903011003 | 79 | 211 | 0.0 | 0.0 | 0.00 | 0.67 | 0.65 | 72 | 1011.7 |
| 20260903010502 | 79 | 211 | 0.0 | 0.0 | 0.00 | 0.67 | 0.65 | 71 | 1011.7 |
| 20260903010003 | 80 | 211 | 0.0 | 1.0 | 0.00 | 0.67 | 0.65 | 70 | 1011.6 |
| 20260903005504 | 80 | 211 | 0.0 | 1.0 | 0.00 | 0.67 | 0.65 | 69 | 1011.7 |
| 20260903005009 | 81 | 211 | 0.0 | 1.0 | 0.00 | 0.67 | 0.65 | 68 | 1011.7 |
| 20260903004510 | 82 | 211 | 0.0 | 1.0 | 0.00 | 0.67 | 0.65 | 67 | 1011.7 |
| 20260903004003 | 82 | 211 | 0.0 | 3.0 | 0.00 | 0.67 | 0.65 | 66 | 1011.6 |
| 20260903003510 | 82 | 211 | 0.0 | 4.0 | 0.00 | 0.67 | 0.65 | 64 | 1011.6 |
| 20260903003017 | 83 | 235 | 1.0 | 5.0 | 0.00 | 0.67 | 0.65 | 64 | 1011.6 |
| 20260903002505 | 83 | 234 | 1.0 | 5.0 | 0.00 | 0.67 | 0.65 | 64 | 1011.6 |
| 20260903002006 | 83 | 252 | 1.0 | 4.0 | 0.00 | 0.67 | 0.65 | 64 | 1011.6 |
| 20260903001517 | 83 | 246 | 0.0 | 4.0 | 0.00 | 0.67 | 0.65 | 64 | 1011.6 |
| 20260903001014 | 84 | 239 | 1.0 | 4.0 | 0.00 | 0.67 | 0.65 | 64 | 1011.6 |
| 20260903000505 | 84 | 238 | 1.0 | 4.0 | 0.00 | 0.67 | 0.65 | 63 | 1011.6 |
| 20260903000011 | 84 | 211 | 1.0 | 4.0 | 0.00 | 0.67 | 0.65 | 64 | 1011.6 |
| 20260902235502 | 84 | 169 | 0.0 | 4.0 | 0.00 | 0.67 | 0.65 | 64 | 1011.7 |
| 20260902235004 | 84 | 199 | 0.0 | 4.0 | 0.00 | 0.67 | 0.65 | 64 | 1011.7 |
| 20260902234507 | 85 | 211 | 0.0 | 4.0 | 0.00 | 0.67 | 0.65 | 64 | 1011.7 |
| 20260902234006 | 85 | 243 | 1.0 | 6.0 | 0.00 | 0.67 | 0.65 | 63 | 1011.6 |
| 20260902233507 | 85 | 182 | 1.0 | 8.0 | 0.00 | 0.67 | 0.65 | 62 | 1011.6 |
| 20260902233011 | 85 | 175 | 2.0 | 8.0 | 0.00 | 0.67 | 0.65 | 62 | 1011.7 |
| 20260902232509 | 85 | 252 | 2.0 | 7.0 | 0.00 | 0.67 | 0.65 | 63 | 1011.6 |
| 20260902232011 | 85 | 152 | 1.0 | 7.0 | 0.00 | 0.67 | 0.65 | 63 | 1011.6 |
| 20260902231519 | 85 | 227 | 0.0 | 5.0 | 0.00 | 0.67 | 0.65 | 64 | 1011.6 |
| 20260902231006 | 86 | 188 | 0.0 | 4.0 | 0.00 | 0.67 | 0.65 | 64 | 1011.6 |
| 20260902230511 | 86 | 199 | 0.0 | 4.0 | 0.00 | 0.67 | 0.65 | 63 | 1011.6 |
| 20260902230024 | 86 | 245 | 0.0 | 4.0 | 0.00 | 0.67 | 0.65 | 63 | 1011.6 |
| 20260902225505 | 86 | 281 | 0.0 | 5.0 | 0.00 | 0.67 | 0.65 | 63 | 1011.6 |
| 20260902225008 | 86 | 251 | 2.0 | 5.0 | 0.00 | 0.67 | 0.65 | 62 | 1011.5 |
| 20260902224524 | 87 | 185 | 0.0 | 4.0 | 0.00 | 0.67 | 0.65 | 62 | 1011.5 |
| 20260902224003 | 87 | 264 | 0.0 | 8.0 | 0.00 | 0.67 | 0.65 | 62 | 1011.5 |
| 20260902223506 | 87 | 252 | 2.0 | 8.0 | 0.00 | 0.67 | 0.65 | 61 | 1011.5 |
| 20260902223007 | 87 | 230 | 2.0 | 7.0 | 0.00 | 0.67 | 0.65 | 61 | 1011.5 |
| 20260902222508 | 87 | 111 | 1.0 | 6.0 | 0.00 | 0.67 | 0.65 | 61 | 1011.5 |
| 20260902222005 | 88 | 267 | 1.0 | 4.0 | 0.00 | 0.67 | 0.65 | 61 | 1011.6 |
| 20260902221519 | 88 | 263 | 1.0 | 4.0 | 0.00 | 0.67 | 0.65 | 62 | 1011.6 |
| 20260902221011 | 88 | 142 | 1.0 | 5.0 | 0.00 | 0.67 | 0.65 | 62 | 1011.6 |
| 20260902220512 | 88 | 169 | 1.0 | 8.0 | 0.00 | 0.67 | 0.65 | 61 | 1011.6 |
| 20260902220010 | 88 | 225 | 1.0 | 8.0 | 0.00 | 0.67 | 0.65 | 61 | 1011.6 |
| 20260902215511 | 88 | 91 | 0.0 | 4.0 | 0.00 | 0.67 | 0.65 | 61 | 1011.6 |
| 20260902215016 | 88 | 252 | 2.0 | 4.0 | 0.00 | 0.67 | 0.65 | 60 | 1011.6 |
| 20260902214526 | 88 | 180 | 0.0 | 5.0 | 0.00 | 0.67 | 0.65 | 60 | 1011.6 |
| 20260902214009 | 88 | 186 | 2.0 | 6.0 | 0.00 | 0.67 | 0.65 | 60 | 1011.6 |
| 20260902213514 | 89 | 244 | 1.0 | 7.0 | 0.00 | 0.67 | 0.65 | 60 | 1011.7 |
| 20260902213029 | 89 | 101 | 0.0 | 7.0 | 0.00 | 0.67 | 0.65 | 60 | 1011.7 |
| 20260902212506 | 89 | 277 | 1.0 | 5.0 | 0.00 | 0.67 | 0.65 | 61 | 1011.7 |
| 20260902212009 | 89 | 16 | 2.0 | 5.0 | 0.00 | 0.67 | 0.65 | 59 | 1011.7 |
| 20260902211514 | 89 | 183 | 0.0 | 5.0 | 0.00 | 0.67 | 0.65 | 60 | 1011.8 |
| 20260902211009 | 89 | 150 | 0.0 | 5.0 | 0.00 | 0.67 | 0.65 | 58 | 1011.8 |
| 20260902210512 | 89 | 126 | 0.0 | 6.0 | 0.00 | 0.67 | 0.65 | 57 | 1011.9 |
| 20260902210019 | 90 | 208 | 1.0 | 6.0 | 0.00 | 0.67 | 0.65 | 57 | 1011.9 |
| 20260902205512 | 90 | 188 | 1.0 | 4.0 | 0.00 | 0.67 | 0.65 | 58 | 1012.0 |
| 20260902205007 | 90 | 15 | 0.0 | 7.0 | 0.00 | 0.67 | 0.65 | 59 | 1011.9 |
| 20260902204531 | 90 | 199 | 0.0 | 7.0 | 0.00 | 0.67 | 0.65 | 61 | 1012.0 |
| 20260902204016 | 89 | 265 | 2.0 | 7.0 | 0.00 | 0.67 | 0.65 | 60 | 1011.9 |
| 20260902203517 | 90 | 121 | 0.0 | 8.0 | 0.00 | 0.67 | 0.65 | 58 | 1012.0 |
| 20260902203013 | 90 | 248 | 2.0 | 8.0 | 0.00 | 0.67 | 0.65 | 59 | 1012.0 |
| 20260902202514 | 90 | 177 | 0.0 | 9.0 | 0.00 | 0.67 | 0.65 | 58 | 1012.0 |
| 20260902202016 | 90 | 135 | 1.0 | 9.0 | 0.00 | 0.67 | 0.65 | 57 | 1012.0 |
| 20260902201509 | 90 | 260 | 3.0 | 7.0 | 0.00 | 0.67 | 0.65 | 58 | 1012.0 |
| 20260902201009 | 89 | 137 | 1.0 | 5.0 | 0.00 | 0.67 | 0.65 | 57 | 1012.0 |
| 20260902200506 | 90 | 314 | 1.0 | 8.0 | 0.00 | 0.67 | 0.65 | 56 | 1012.0 |
| 20260902200014 | 89 | 243 | 2.0 | 8.0 | 0.00 | 0.67 | 0.65 | 57 | 1012.1 |
| 20260902195507 | 88 | 269 | 0.0 | 5.0 | 0.00 | 0.67 | 0.65 | 55 | 1012.1 |
| 20260902195014 | 89 | 144 | 1.0 | 5.0 | 0.00 | 0.67 | 0.65 | 56 | 1012.1 |
| 20260902194519 | 88 | 36 | 0.0 | 4.0 | 0.00 | 0.67 | 0.65 | 58 | 1012.2 |
| 20260902194012 | 88 | 238 | 1.0 | 6.0 | 0.00 | 0.67 | 0.65 | 58 | 1012.2 |
| 20260902193510 | 88 | 138 | 1.0 | 6.0 | 0.00 | 0.67 | 0.65 | 61 | 1012.2 |
| 20260902193024 | 87 | 152 | 2.0 | 6.0 | 0.00 | 0.67 | 0.65 | 59 | 1012.2 |
| 20260902192516 | 87 | 15 | 0.0 | 4.0 | 0.00 | 0.67 | 0.65 | 59 | 1012.3 |
| 20260902192010 | 87 | 132 | 1.0 | 4.0 | 0.00 | 0.67 | 0.65 | 60 | 1012.3 |
| 20260902191524 | 88 | 120 | 1.0 | 4.0 | 0.00 | 0.67 | 0.65 | 58 | 1012.3 |
| 20260902191015 | 88 | 103 | 0.0 | 3.0 | 0.00 | 0.67 | 0.65 | 61 | 1012.4 |
| 20260902190519 | 87 | 319 | 0.0 | 6.0 | 0.00 | 0.67 | 0.65 | 60 | 1012.5 |
| 20260902190020 | 87 | 113 | 0.0 | 6.0 | 0.00 | 0.67 | 0.65 | 61 | 1012.6 |
| 20260902185503 | 87 | 217 | 0.0 | 4.0 | 0.00 | 0.67 | 0.65 | 60 | 1012.8 |
| 20260902185004 | 87 | 232 | 1.0 | 7.0 | 0.00 | 0.67 | 0.65 | 60 | 1013.0 |
| 20260902184521 | 88 | 160 | 1.0 | 7.0 | 0.00 | 0.67 | 0.65 | 59 | 1013.1 |
| 20260902184003 | 87 | 269 | 3.0 | 7.0 | 0.00 | 0.67 | 0.65 | 60 | 1013.1 |
| 20260902183503 | 87 | 134 | 2.0 | 4.0 | 0.00 | 0.67 | 0.65 | 62 | 1013.0 |
| 20260902183009 | 86 | 319 | 0.0 | 4.0 | 0.00 | 0.67 | 0.65 | 62 | 1012.8 |
| 20260902182501 | 87 | 114 | 1.0 | 8.0 | 0.00 | 0.67 | 0.65 | 59 | 1012.8 |
| 20260902182002 | 86 | 283 | 0.0 | 8.0 | 0.00 | 0.67 | 0.65 | 59 | 1012.9 |
| 20260902181503 | 86 | 208 | 1.0 | 4.0 | 0.00 | 0.67 | 0.65 | 62 | 1013.0 |
| 20260902181003 | 86 | 196 | 0.0 | 5.0 | 0.00 | 0.67 | 0.65 | 62 | 1013.0 |
| 20260902180505 | 86 | 18 | 1.0 | 5.0 | 0.00 | 0.67 | 0.65 | 61 | 1013.1 |
| 20260902180007 | 86 | 239 | 1.0 | 6.0 | 0.00 | 0.67 | 0.65 | 59 | 1013.2 |
| 20260902175507 | 86 | 203 | 2.0 | 9.0 | 0.00 | 0.67 | 0.65 | 60 | 1013.3 |
| 20260902175008 | 86 | 250 | 3.0 | 9.0 | 0.00 | 0.67 | 0.65 | 61 | 1013.4 |
| 20260902174503 | 86 | 267 | 1.0 | 8.0 | 0.00 | 0.67 | 0.65 | 63 | 1013.5 |
| 20260902174007 | 85 | 225 | 3.0 | 8.0 | 0.00 | 0.67 | 0.65 | 62 | 1013.5 |
| 20260902173510 | 85 | 252 | 0.0 | 7.0 | 0.00 | 0.67 | 0.65 | 64 | 1013.5 |
| 20260902173025 | 85 | 271 | 3.0 | 7.0 | 0.00 | 0.67 | 0.65 | 63 | 1013.5 |
| 20260902172505 | 85 | 171 | 0.0 | 7.0 | 0.00 | 0.67 | 0.65 | 64 | 1013.5 |
| 20260902172007 | 84 | 220 | 2.0 | 6.0 | 0.00 | 0.67 | 0.65 | 64 | 1013.7 |
| 20260902171505 | 84 | 215 | 2.0 | 6.0 | 0.00 | 0.67 | 0.65 | 65 | 1013.7 |
| 20260902171002 | 84 | 215 | 2.0 | 5.0 | 0.00 | 0.67 | 0.65 | 64 | 1013.6 |
| 20260902170502 | 83 | 188 | 2.0 | 8.0 | 0.00 | 0.67 | 0.65 | 65 | 1013.7 |
| 20260902170004 | 83 | 239 | 4.0 | 8.0 | 0.00 | 0.67 | 0.65 | 65 | 1013.7 |
| 20260902165503 | 82 | 266 | 0.0 | 7.0 | 0.00 | 0.67 | 0.65 | 68 | 1013.7 |
| 20260902165004 | 82 | 267 | 1.0 | 9.0 | 0.00 | 0.67 | 0.65 | 67 | 1013.6 |
| 20260902164512 | 82 | 240 | 2.0 | 9.0 | 0.00 | 0.67 | 0.65 | 68 | 1013.5 |
| 20260902164007 | 82 | 271 | 2.0 | 9.0 | 0.00 | 0.67 | 0.65 | 67 | 1013.4 |
| 20260902163504 | 82 | 149 | 1.0 | 4.0 | 0.00 | 0.67 | 0.65 | 67 | 1013.5 |
| 20260902163008 | 81 | 232 | 1.0 | 6.0 | 0.00 | 0.67 | 0.65 | 69 | 1013.4 |
| 20260902162507 | 80 | 252 | 1.0 | 6.0 | 0.00 | 0.67 | 0.65 | 69 | 1013.4 |
| 20260902162009 | 80 | 145 | 1.0 | 6.0 | 0.00 | 0.67 | 0.65 | 69 | 1013.4 |
| 20260902161503 | 79 | 86 | 1.0 | 4.0 | 0.00 | 0.67 | 0.65 | 73 | 1013.5 |
| 20260902161007 | 78 | 131 | 1.0 | 9.0 | 0.00 | 0.67 | 0.65 | 73 | 1013.5 |
| 20260902160510 | 78 | 158 | 2.0 | 9.0 | 0.00 | 0.67 | 0.65 | 72 | 1013.6 |
| 20260902160027 | 78 | 80 | 1.0 | 9.0 | 0.00 | 0.67 | 0.65 | 73 | 1013.6 |
| 20260902155505 | 78 | 132 | 3.0 | 9.0 | 0.00 | 0.67 | 0.65 | 72 | 1013.6 |
| 20260902155003 | 78 | 153 | 3.0 | 9.0 | 0.00 | 0.67 | 0.65 | 74 | 1013.7 |
| 20260902154508 | 78 | 153 | 2.0 | 7.0 | 0.00 | 0.67 | 0.65 | 74 | 1013.7 |
| 20260902154002 | 78 | 160 | 1.0 | 5.0 | 0.00 | 0.67 | 0.65 | 78 | 1013.6 |
| 20260902153506 | 77 | 128 | 0.0 | 6.0 | 0.00 | 0.67 | 0.65 | 79 | 1013.5 |
| 20260902153012 | 76 | 153 | 2.0 | 8.0 | 0.00 | 0.67 | 0.65 | 78 | 1013.5 |
| 20260902152507 | 76 | 133 | 0.0 | 8.0 | 0.00 | 0.67 | 0.65 | 82 | 1013.5 |
| 20260902152007 | 75 | 244 | 2.0 | 7.0 | 0.00 | 0.67 | 0.65 | 80 | 1013.5 |
| 20260902151518 | 74 | 101 | 0.0 | 8.0 | 0.00 | 0.67 | 0.65 | 82 | 1013.5 |
| 20260902151011 | 74 | 170 | 2.0 | 8.0 | 0.00 | 0.67 | 0.65 | 81 | 1013.4 |
| 20260902150504 | 73 | 159 | 2.0 | 8.0 | 0.00 | 0.67 | 0.65 | 82 | 1013.4 |
| 20260902150014 | 73 | 111 | 2.0 | 8.0 | 0.00 | 0.67 | 0.65 | 84 | 1013.4 |
| 20260902145512 | 72 | 273 | 3.0 | 8.0 | 0.00 | 0.67 | 0.65 | 84 | 1013.5 |
| 20260902145015 | 72 | 121 | 2.0 | 9.0 | 0.00 | 0.67 | 0.65 | 85 | 1013.4 |
| 20260902144507 | 71 | 157 | 2.0 | 9.0 | 0.00 | 0.67 | 0.65 | 87 | 1013.5 |
| 20260902144005 | 71 | 139 | 2.0 | 7.0 | 0.00 | 0.67 | 0.65 | 88 | 1013.6 |
| 20260902143504 | 70 | 175 | 1.0 | 6.0 | 0.00 | 0.67 | 0.65 | 89 | 1013.7 |
| 20260902143009 | 69 | 129 | 1.0 | 6.0 | 0.00 | 0.67 | 0.65 | 90 | 1013.7 |
| 20260902142506 | 69 | 119 | 1.0 | 6.0 | 0.00 | 0.67 | 0.65 | 91 | 1013.7 |
| 20260902142009 | 68 | 145 | 0.0 | 4.0 | 0.00 | 0.67 | 0.65 | 92 | 1013.6 |
| 20260902141512 | 68 | 152 | 0.0 | 4.0 | 0.00 | 0.67 | 0.65 | 92 | 1013.7 |